sensor_id;sensor_type;location;lat;lon;timestamp;P1;durP1;ratioP1;P2;durP2;ratioP2
22780;SDS011;11557;50.884;4.322;2022-07-23T00:02:20;23.73;;;17.17;;
22780;SDS011;11557;50.884;4.322;2022-07-23T00:04:46;18.35;;;16.27;;
22780;SDS011;11557;50.884;4.322;2022-07-23T00:07:11;22.20;;;17.27;;
22780;SDS011;11557;50.884;4.322;2022-07-23T00:09:37;21.00;;;16.42;;
22780;SDS011;11557;50.884;4.322;2022-07-23T00:12:02;20.10;;;15.40;;
22780;SDS011;11557;50.884;4.322;2022-07-23T00:14:28;19.67;;;16.27;;
22780;SDS011;11557;50.884;4.322;2022-07-23T00:16:55;19.23;;;15.95;;
22780;SDS011;11557;50.884;4.322;2022-07-23T00:19:21;19.67;;;16.48;;
22780;SDS011;11557;50.884;4.322;2022-07-23T00:21:46;17.42;;;15.57;;
22780;SDS011;11557;50.884;4.322;2022-07-23T00:24:12;18.27;;;16.35;;
22780;SDS011;11557;50.884;4.322;2022-07-23T00:26:37;20.17;;;16.75;;
22780;SDS011;11557;50.884;4.322;2022-07-23T00:29:03;19.00;;;16.83;;
22780;SDS011;11557;50.884;4.322;2022-07-23T00:31:29;19.23;;;16.50;;
22780;SDS011;11557;50.884;4.322;2022-07-23T00:33:54;21.85;;;17.10;;
22780;SDS011;11557;50.884;4.322;2022-07-23T00:36:25;18.70;;;16.23;;
22780;SDS011;11557;50.884;4.322;2022-07-23T00:38:52;19.13;;;17.05;;
22780;SDS011;11557;50.884;4.322;2022-07-23T00:41:18;19.92;;;16.83;;
22780;SDS011;11557;50.884;4.322;2022-07-23T00:43:44;21.10;;;17.20;;
22780;SDS011;11557;50.884;4.322;2022-07-23T00:46:10;19.20;;;15.98;;
22780;SDS011;11557;50.884;4.322;2022-07-23T00:48:35;19.25;;;17.05;;
22780;SDS011;11557;50.884;4.322;2022-07-23T00:51:01;20.55;;;16.20;;
22780;SDS011;11557;50.884;4.322;2022-07-23T00:53:26;20.10;;;16.50;;
22780;SDS011;11557;50.884;4.322;2022-07-23T00:55:53;21.90;;;16.52;;
22780;SDS011;11557;50.884;4.322;2022-07-23T00:58:19;18.63;;;16.63;;
22780;SDS011;11557;50.884;4.322;2022-07-23T01:00:45;19.88;;;16.52;;
22780;SDS011;11557;50.884;4.322;2022-07-23T01:03:11;19.33;;;16.40;;
22780;SDS011;11557;50.884;4.322;2022-07-23T01:05:36;26.10;;;16.67;;
22780;SDS011;11557;50.884;4.322;2022-07-23T01:08:03;19.40;;;17.13;;
22780;SDS011;11557;50.884;4.322;2022-07-23T01:10:30;21.55;;;16.13;;
22780;SDS011;11557;50.884;4.322;2022-07-23T01:12:56;24.58;;;17.23;;
22780;SDS011;11557;50.884;4.322;2022-07-23T01:15:32;22.10;;;16.67;;
22780;SDS011;11557;50.884;4.322;2022-07-23T01:17:59;22.83;;;16.10;;
22780;SDS011;11557;50.884;4.322;2022-07-23T01:20:25;20.95;;;15.70;;
22780;SDS011;11557;50.884;4.322;2022-07-23T01:22:51;18.48;;;15.95;;
22780;SDS011;11557;50.884;4.322;2022-07-23T01:25:17;19.38;;;16.90;;
22780;SDS011;11557;50.884;4.322;2022-07-23T01:27:43;22.88;;;17.15;;
22780;SDS011;11557;50.884;4.322;2022-07-23T01:30:09;18.52;;;15.45;;
22780;SDS011;11557;50.884;4.322;2022-07-23T01:32:35;19.80;;;15.68;;
22780;SDS011;11557;50.884;4.322;2022-07-23T01:35:01;18.27;;;16.38;;
22780;SDS011;11557;50.884;4.322;2022-07-23T01:37:27;19.85;;;15.75;;
22780;SDS011;11557;50.884;4.322;2022-07-23T01:39:52;18.73;;;16.75;;
22780;SDS011;11557;50.884;4.322;2022-07-23T01:42:18;25.45;;;16.67;;
22780;SDS011;11557;50.884;4.322;2022-07-23T01:44:44;20.92;;;16.98;;
22780;SDS011;11557;50.884;4.322;2022-07-23T01:47:09;21.50;;;17.33;;
22780;SDS011;11557;50.884;4.322;2022-07-23T01:49:35;22.88;;;16.58;;
22780;SDS011;11557;50.884;4.322;2022-07-23T01:52:01;20.90;;;16.83;;
22780;SDS011;11557;50.884;4.322;2022-07-23T01:54:31;21.30;;;16.77;;
22780;SDS011;11557;50.884;4.322;2022-07-23T01:56:58;22.15;;;17.35;;
22780;SDS011;11557;50.884;4.322;2022-07-23T01:59:25;22.88;;;16.55;;
22780;SDS011;11557;50.884;4.322;2022-07-23T02:01:51;19.35;;;16.70;;
22780;SDS011;11557;50.884;4.322;2022-07-23T02:04:18;25.13;;;16.17;;
22780;SDS011;11557;50.884;4.322;2022-07-23T02:06:44;18.40;;;16.58;;
22780;SDS011;11557;50.884;4.322;2022-07-23T02:09:10;18.52;;;16.23;;
22780;SDS011;11557;50.884;4.322;2022-07-23T02:11:36;20.02;;;16.85;;
22780;SDS011;11557;50.884;4.322;2022-07-23T02:14:01;19.67;;;16.85;;
22780;SDS011;11557;50.884;4.322;2022-07-23T02:16:27;21.23;;;15.90;;
22780;SDS011;11557;50.884;4.322;2022-07-23T02:18:53;18.38;;;15.77;;
22780;SDS011;11557;50.884;4.322;2022-07-23T02:21:18;17.83;;;15.88;;
22780;SDS011;11557;50.884;4.322;2022-07-23T02:23:44;19.38;;;15.80;;
22780;SDS011;11557;50.884;4.322;2022-07-23T02:26:09;19.77;;;16.98;;
22780;SDS011;11557;50.884;4.322;2022-07-23T02:28:36;18.75;;;16.83;;
22780;SDS011;11557;50.884;4.322;2022-07-23T02:31:02;20.20;;;16.38;;
22780;SDS011;11557;50.884;4.322;2022-07-23T02:33:28;17.75;;;15.90;;
22780;SDS011;11557;50.884;4.322;2022-07-23T02:35:54;23.67;;;17.40;;
22780;SDS011;11557;50.884;4.322;2022-07-23T02:38:20;22.38;;;16.58;;
22780;SDS011;11557;50.884;4.322;2022-07-23T02:40:45;26.85;;;17.60;;
22780;SDS011;11557;50.884;4.322;2022-07-23T02:43:11;21.17;;;16.70;;
22780;SDS011;11557;50.884;4.322;2022-07-23T02:45:37;18.90;;;16.25;;
22780;SDS011;11557;50.884;4.322;2022-07-23T02:48:02;20.83;;;17.88;;
22780;SDS011;11557;50.884;4.322;2022-07-23T02:50:28;25.52;;;17.15;;
22780;SDS011;11557;50.884;4.322;2022-07-23T02:52:54;20.25;;;16.15;;
22780;SDS011;11557;50.884;4.322;2022-07-23T02:55:19;18.88;;;16.33;;
22780;SDS011;11557;50.884;4.322;2022-07-23T02:57:45;20.15;;;16.83;;
22780;SDS011;11557;50.884;4.322;2022-07-23T03:00:11;19.38;;;16.85;;
22780;SDS011;11557;50.884;4.322;2022-07-23T03:02:37;23.33;;;16.58;;
22780;SDS011;11557;50.884;4.322;2022-07-23T03:05:02;18.55;;;16.33;;
22780;SDS011;11557;50.884;4.322;2022-07-23T03:07:28;24.63;;;16.25;;
22780;SDS011;11557;50.884;4.322;2022-07-23T03:09:54;19.02;;;16.02;;
22780;SDS011;11557;50.884;4.322;2022-07-23T03:12:20;18.55;;;16.58;;
22780;SDS011;11557;50.884;4.322;2022-07-23T03:14:45;18.40;;;15.30;;
22780;SDS011;11557;50.884;4.322;2022-07-23T03:17:11;23.48;;;15.95;;
22780;SDS011;11557;50.884;4.322;2022-07-23T03:19:37;23.65;;;15.95;;
22780;SDS011;11557;50.884;4.322;2022-07-23T03:22:03;18.75;;;15.95;;
22780;SDS011;11557;50.884;4.322;2022-07-23T03:24:29;18.23;;;16.10;;
22780;SDS011;11557;50.884;4.322;2022-07-23T03:27:13;19.70;;;15.57;;
22780;SDS011;11557;50.884;4.322;2022-07-23T03:29:39;19.50;;;16.05;;
22780;SDS011;11557;50.884;4.322;2022-07-23T03:32:05;18.13;;;16.13;;
22780;SDS011;11557;50.884;4.322;2022-07-23T03:34:30;21.25;;;16.70;;
22780;SDS011;11557;50.884;4.322;2022-07-23T03:36:56;20.73;;;17.58;;
22780;SDS011;11557;50.884;4.322;2022-07-23T03:39:22;22.27;;;17.45;;
22780;SDS011;11557;50.884;4.322;2022-07-23T03:41:47;19.75;;;17.00;;
22780;SDS011;11557;50.884;4.322;2022-07-23T03:44:13;22.55;;;18.00;;
22780;SDS011;11557;50.884;4.322;2022-07-23T03:46:39;17.92;;;16.02;;
22780;SDS011;11557;50.884;4.322;2022-07-23T03:49:05;19.83;;;16.30;;
22780;SDS011;11557;50.884;4.322;2022-07-23T03:51:30;20.33;;;16.15;;
22780;SDS011;11557;50.884;4.322;2022-07-23T03:54:03;21.58;;;15.90;;
22780;SDS011;11557;50.884;4.322;2022-07-23T03:56:29;22.00;;;17.25;;
22780;SDS011;11557;50.884;4.322;2022-07-23T03:58:54;18.85;;;16.50;;
22780;SDS011;11557;50.884;4.322;2022-07-23T04:01:20;18.95;;;16.67;;
22780;SDS011;11557;50.884;4.322;2022-07-23T04:03:46;20.10;;;15.68;;
22780;SDS011;11557;50.884;4.322;2022-07-23T04:06:11;20.23;;;15.50;;
22780;SDS011;11557;50.884;4.322;2022-07-23T04:08:37;19.25;;;15.88;;
22780;SDS011;11557;50.884;4.322;2022-07-23T04:11:03;21.15;;;15.68;;
22780;SDS011;11557;50.884;4.322;2022-07-23T04:13:29;21.88;;;15.30;;
22780;SDS011;11557;50.884;4.322;2022-07-23T04:15:54;18.13;;;15.25;;
22780;SDS011;11557;50.884;4.322;2022-07-23T04:18:20;17.80;;;15.15;;
22780;SDS011;11557;50.884;4.322;2022-07-23T04:20:48;19.33;;;15.63;;
22780;SDS011;11557;50.884;4.322;2022-07-23T04:23:16;18.05;;;15.40;;
22780;SDS011;11557;50.884;4.322;2022-07-23T04:25:42;18.55;;;15.30;;
22780;SDS011;11557;50.884;4.322;2022-07-23T04:28:07;18.13;;;14.55;;
22780;SDS011;11557;50.884;4.322;2022-07-23T04:30:33;18.58;;;16.00;;
22780;SDS011;11557;50.884;4.322;2022-07-23T04:32:59;20.90;;;16.67;;
22780;SDS011;11557;50.884;4.322;2022-07-23T04:35:25;17.55;;;14.60;;
22780;SDS011;11557;50.884;4.322;2022-07-23T04:37:51;18.15;;;15.98;;
22780;SDS011;11557;50.884;4.322;2022-07-23T04:40:17;18.73;;;14.75;;
22780;SDS011;11557;50.884;4.322;2022-07-23T04:42:42;19.02;;;15.57;;
22780;SDS011;11557;50.884;4.322;2022-07-23T04:45:08;19.38;;;15.43;;
22780;SDS011;11557;50.884;4.322;2022-07-23T04:47:34;17.73;;;14.57;;
22780;SDS011;11557;50.884;4.322;2022-07-23T04:50:00;17.73;;;14.65;;
22780;SDS011;11557;50.884;4.322;2022-07-23T04:52:25;21.55;;;16.10;;
22780;SDS011;11557;50.884;4.322;2022-07-23T04:54:51;19.33;;;16.63;;
22780;SDS011;11557;50.884;4.322;2022-07-23T04:57:17;20.27;;;16.10;;
22780;SDS011;11557;50.884;4.322;2022-07-23T04:59:42;18.27;;;16.38;;
22780;SDS011;11557;50.884;4.322;2022-07-23T05:02:08;17.17;;;14.90;;
22780;SDS011;11557;50.884;4.322;2022-07-23T05:04:33;22.55;;;17.02;;
22780;SDS011;11557;50.884;4.322;2022-07-23T05:06:59;17.83;;;15.88;;
22780;SDS011;11557;50.884;4.322;2022-07-23T05:09:25;18.08;;;15.68;;
22780;SDS011;11557;50.884;4.322;2022-07-23T05:11:51;18.40;;;15.25;;
22780;SDS011;11557;50.884;4.322;2022-07-23T05:14:16;21.30;;;15.50;;
22780;SDS011;11557;50.884;4.322;2022-07-23T05:16:42;18.13;;;14.35;;
22780;SDS011;11557;50.884;4.322;2022-07-23T05:19:08;21.33;;;15.32;;
22780;SDS011;11557;50.884;4.322;2022-07-23T05:21:34;20.75;;;14.73;;
22780;SDS011;11557;50.884;4.322;2022-07-23T05:23:59;17.60;;;14.60;;
22780;SDS011;11557;50.884;4.322;2022-07-23T05:26:25;17.30;;;14.77;;
22780;SDS011;11557;50.884;4.322;2022-07-23T05:28:51;17.48;;;14.23;;
22780;SDS011;11557;50.884;4.322;2022-07-23T05:31:16;20.45;;;14.32;;
22780;SDS011;11557;50.884;4.322;2022-07-23T05:33:43;20.15;;;14.85;;
22780;SDS011;11557;50.884;4.322;2022-07-23T05:36:08;15.88;;;14.20;;
22780;SDS011;11557;50.884;4.322;2022-07-23T05:38:34;15.93;;;13.00;;
22780;SDS011;11557;50.884;4.322;2022-07-23T05:41:00;17.85;;;13.95;;
22780;SDS011;11557;50.884;4.322;2022-07-23T05:43:27;16.98;;;13.98;;
22780;SDS011;11557;50.884;4.322;2022-07-23T05:45:52;18.75;;;14.18;;
22780;SDS011;11557;50.884;4.322;2022-07-23T05:48:18;14.95;;;12.35;;
22780;SDS011;11557;50.884;4.322;2022-07-23T05:50:45;16.25;;;13.25;;
22780;SDS011;11557;50.884;4.322;2022-07-23T05:53:11;13.85;;;12.45;;
22780;SDS011;11557;50.884;4.322;2022-07-23T05:55:37;17.67;;;13.48;;
22780;SDS011;11557;50.884;4.322;2022-07-23T05:58:03;15.40;;;13.18;;
22780;SDS011;11557;50.884;4.322;2022-07-23T06:00:29;18.27;;;12.93;;
22780;SDS011;11557;50.884;4.322;2022-07-23T06:02:55;18.92;;;13.60;;
22780;SDS011;11557;50.884;4.322;2022-07-23T06:05:20;14.18;;;12.52;;
22780;SDS011;11557;50.884;4.322;2022-07-23T06:07:46;17.45;;;12.77;;
22780;SDS011;11557;50.884;4.322;2022-07-23T06:10:12;19.92;;;12.80;;
22780;SDS011;11557;50.884;4.322;2022-07-23T06:12:38;16.63;;;12.88;;
22780;SDS011;11557;50.884;4.322;2022-07-23T06:15:04;17.27;;;12.77;;
22780;SDS011;11557;50.884;4.322;2022-07-23T06:17:30;16.50;;;12.07;;
22780;SDS011;11557;50.884;4.322;2022-07-23T06:19:55;17.83;;;13.60;;
22780;SDS011;11557;50.884;4.322;2022-07-23T06:22:21;15.60;;;12.52;;
22780;SDS011;11557;50.884;4.322;2022-07-23T06:24:48;18.33;;;14.07;;
22780;SDS011;11557;50.884;4.322;2022-07-23T06:27:14;17.70;;;13.23;;
22780;SDS011;11557;50.884;4.322;2022-07-23T06:29:40;17.92;;;13.80;;
22780;SDS011;11557;50.884;4.322;2022-07-23T06:32:06;14.25;;;12.15;;
22780;SDS011;11557;50.884;4.322;2022-07-23T06:34:32;16.98;;;14.07;;
22780;SDS011;11557;50.884;4.322;2022-07-23T06:36:58;17.63;;;13.48;;
22780;SDS011;11557;50.884;4.322;2022-07-23T06:39:24;15.38;;;13.10;;
22780;SDS011;11557;50.884;4.322;2022-07-23T06:41:50;16.67;;;13.73;;
22780;SDS011;11557;50.884;4.322;2022-07-23T06:44:16;13.95;;;12.45;;
22780;SDS011;11557;50.884;4.322;2022-07-23T06:46:42;17.85;;;12.07;;
22780;SDS011;11557;50.884;4.322;2022-07-23T06:49:07;16.20;;;12.50;;
22780;SDS011;11557;50.884;4.322;2022-07-23T06:51:33;19.20;;;12.55;;
22780;SDS011;11557;50.884;4.322;2022-07-23T06:53:59;15.10;;;11.98;;
22780;SDS011;11557;50.884;4.322;2022-07-23T06:56:25;15.48;;;12.93;;
22780;SDS011;11557;50.884;4.322;2022-07-23T06:58:51;13.95;;;12.40;;
22780;SDS011;11557;50.884;4.322;2022-07-23T07:01:17;12.70;;;11.23;;
22780;SDS011;11557;50.884;4.322;2022-07-23T07:03:42;10.93;;;9.75;;
22780;SDS011;11557;50.884;4.322;2022-07-23T07:06:08;10.90;;;8.57;;
22780;SDS011;11557;50.884;4.322;2022-07-23T07:08:34;11.23;;;8.50;;
22780;SDS011;11557;50.884;4.322;2022-07-23T07:11:00;9.85;;;8.00;;
22780;SDS011;11557;50.884;4.322;2022-07-23T07:13:25;10.27;;;8.05;;
22780;SDS011;11557;50.884;4.322;2022-07-23T07:15:51;9.82;;;7.25;;
22780;SDS011;11557;50.884;4.322;2022-07-23T07:18:16;13.05;;;7.82;;
22780;SDS011;11557;50.884;4.322;2022-07-23T07:20:42;8.32;;;6.85;;
22780;SDS011;11557;50.884;4.322;2022-07-23T07:23:08;8.88;;;6.75;;
22780;SDS011;11557;50.884;4.322;2022-07-23T07:25:34;8.27;;;6.10;;
22780;SDS011;11557;50.884;4.322;2022-07-23T07:27:59;6.82;;;5.80;;
22780;SDS011;11557;50.884;4.322;2022-07-23T07:30:25;7.20;;;5.88;;
22780;SDS011;11557;50.884;4.322;2022-07-23T07:32:50;9.85;;;6.35;;
22780;SDS011;11557;50.884;4.322;2022-07-23T07:35:16;6.22;;;5.65;;
22780;SDS011;11557;50.884;4.322;2022-07-23T07:37:42;5.60;;;5.10;;
22780;SDS011;11557;50.884;4.322;2022-07-23T07:40:07;8.43;;;6.15;;
22780;SDS011;11557;50.884;4.322;2022-07-23T07:42:33;7.43;;;6.03;;
22780;SDS011;11557;50.884;4.322;2022-07-23T07:44:59;8.95;;;5.95;;
22780;SDS011;11557;50.884;4.322;2022-07-23T07:47:25;7.75;;;5.95;;
22780;SDS011;11557;50.884;4.322;2022-07-23T07:49:52;8.00;;;6.00;;
22780;SDS011;11557;50.884;4.322;2022-07-23T07:52:17;6.00;;;5.28;;
22780;SDS011;11557;50.884;4.322;2022-07-23T07:54:43;6.90;;;6.20;;
22780;SDS011;11557;50.884;4.322;2022-07-23T07:57:09;6.60;;;5.22;;
22780;SDS011;11557;50.884;4.322;2022-07-23T07:59:34;12.32;;;6.57;;
22780;SDS011;11557;50.884;4.322;2022-07-23T08:02:00;9.73;;;5.70;;
22780;SDS011;11557;50.884;4.322;2022-07-23T08:04:26;7.28;;;6.15;;
22780;SDS011;11557;50.884;4.322;2022-07-23T08:06:52;7.32;;;5.70;;
22780;SDS011;11557;50.884;4.322;2022-07-23T08:09:17;7.03;;;5.53;;
22780;SDS011;11557;50.884;4.322;2022-07-23T08:11:43;6.05;;;5.32;;
22780;SDS011;11557;50.884;4.322;2022-07-23T08:14:09;6.88;;;5.22;;
22780;SDS011;11557;50.884;4.322;2022-07-23T08:16:36;12.57;;;5.97;;
22780;SDS011;11557;50.884;4.322;2022-07-23T08:19:01;6.53;;;5.82;;
22780;SDS011;11557;50.884;4.322;2022-07-23T08:21:27;11.02;;;5.63;;
22780;SDS011;11557;50.884;4.322;2022-07-23T08:23:53;6.43;;;5.15;;
22780;SDS011;11557;50.884;4.322;2022-07-23T08:26:18;7.90;;;5.65;;
22780;SDS011;11557;50.884;4.322;2022-07-23T08:28:44;9.15;;;6.28;;
22780;SDS011;11557;50.884;4.322;2022-07-23T08:31:09;9.23;;;6.03;;
22780;SDS011;11557;50.884;4.322;2022-07-23T08:33:36;7.22;;;5.80;;
22780;SDS011;11557;50.884;4.322;2022-07-23T08:36:02;5.97;;;5.38;;
22780;SDS011;11557;50.884;4.322;2022-07-23T08:38:29;5.88;;;5.28;;
22780;SDS011;11557;50.884;4.322;2022-07-23T08:40:55;8.18;;;5.88;;
22780;SDS011;11557;50.884;4.322;2022-07-23T08:43:27;6.43;;;5.47;;
22780;SDS011;11557;50.884;4.322;2022-07-23T08:45:55;7.25;;;5.15;;
22780;SDS011;11557;50.884;4.322;2022-07-23T08:48:23;5.90;;;5.20;;
22780;SDS011;11557;50.884;4.322;2022-07-23T08:50:52;6.25;;;4.78;;
22780;SDS011;11557;50.884;4.322;2022-07-23T08:53:22;15.20;;;4.90;;
22780;SDS011;11557;50.884;4.322;2022-07-23T08:55:53;7.78;;;4.97;;
22780;SDS011;11557;50.884;4.322;2022-07-23T08:58:20;9.30;;;5.35;;
22780;SDS011;11557;50.884;4.322;2022-07-23T09:00:47;6.20;;;5.60;;
22780;SDS011;11557;50.884;4.322;2022-07-23T09:03:20;7.80;;;5.18;;
22780;SDS011;11557;50.884;4.322;2022-07-23T09:05:49;6.68;;;4.95;;
22780;SDS011;11557;50.884;4.322;2022-07-23T09:08:17;9.15;;;5.00;;
22780;SDS011;11557;50.884;4.322;2022-07-23T09:15:55;7.75;;;5.45;;
22780;SDS011;11557;50.884;4.322;2022-07-23T09:18:36;5.93;;;4.93;;
22780;SDS011;11557;50.884;4.322;2022-07-23T09:21:08;7.82;;;5.20;;
22780;SDS011;11557;50.884;4.322;2022-07-23T09:23:45;7.90;;;5.20;;
22780;SDS011;11557;50.884;4.322;2022-07-23T09:26:26;9.77;;;4.78;;
22780;SDS011;11557;50.884;4.322;2022-07-23T09:31:25;7.05;;;4.35;;
22780;SDS011;11557;50.884;4.322;2022-07-23T09:37:08;6.93;;;4.57;;
22780;SDS011;11557;50.884;4.322;2022-07-23T09:39:35;5.63;;;4.68;;
22780;SDS011;11557;50.884;4.322;2022-07-23T09:44:44;5.80;;;4.05;;
22780;SDS011;11557;50.884;4.322;2022-07-23T09:47:14;6.88;;;3.85;;
22780;SDS011;11557;50.884;4.322;2022-07-23T09:49:40;7.97;;;4.60;;
22780;SDS011;11557;50.884;4.322;2022-07-23T09:52:25;7.82;;;5.18;;
22780;SDS011;11557;50.884;4.322;2022-07-23T09:54:57;5.60;;;4.68;;
22780;SDS011;11557;50.884;4.322;2022-07-23T09:57:25;3.90;;;3.50;;
22780;SDS011;11557;50.884;4.322;2022-07-23T09:59:52;5.65;;;4.40;;
22780;SDS011;11557;50.884;4.322;2022-07-23T10:02:18;6.72;;;4.07;;
22780;SDS011;11557;50.884;4.322;2022-07-23T10:04:44;9.15;;;5.00;;
22780;SDS011;11557;50.884;4.322;2022-07-23T10:07:11;6.68;;;4.07;;
22780;SDS011;11557;50.884;4.322;2022-07-23T10:09:41;7.07;;;3.72;;
22780;SDS011;11557;50.884;4.322;2022-07-23T10:12:14;7.95;;;4.18;;
22780;SDS011;11557;50.884;4.322;2022-07-23T10:14:44;4.53;;;4.05;;
22780;SDS011;11557;50.884;4.322;2022-07-23T10:17:10;6.20;;;3.50;;
22780;SDS011;11557;50.884;4.322;2022-07-23T10:19:37;7.18;;;4.20;;
22780;SDS011;11557;50.884;4.322;2022-07-23T10:22:08;6.93;;;4.28;;
22780;SDS011;11557;50.884;4.322;2022-07-23T10:24:41;4.90;;;3.80;;
22780;SDS011;11557;50.884;4.322;2022-07-23T10:30:05;6.60;;;4.63;;
22780;SDS011;11557;50.884;4.322;2022-07-23T10:37:51;5.13;;;3.67;;
22780;SDS011;11557;50.884;4.322;2022-07-23T10:40:25;5.40;;;4.03;;
22780;SDS011;11557;50.884;4.322;2022-07-23T10:42:51;5.80;;;4.68;;
22780;SDS011;11557;50.884;4.322;2022-07-23T10:47:48;6.35;;;4.05;;
22780;SDS011;11557;50.884;4.322;2022-07-23T10:50:29;6.28;;;4.82;;
22780;SDS011;11557;50.884;4.322;2022-07-23T10:58:00;6.90;;;4.88;;
22780;SDS011;11557;50.884;4.322;2022-07-23T11:00:28;5.75;;;4.65;;
22780;SDS011;11557;50.884;4.322;2022-07-23T11:02:59;6.80;;;3.83;;
22780;SDS011;11557;50.884;4.322;2022-07-23T11:05:27;7.47;;;5.07;;
22780;SDS011;11557;50.884;4.322;2022-07-23T11:10:37;8.13;;;4.75;;
22780;SDS011;11557;50.884;4.322;2022-07-23T11:24:06;5.63;;;4.38;;
22780;SDS011;11557;50.884;4.322;2022-07-23T11:34:41;5.22;;;4.15;;
22780;SDS011;11557;50.884;4.322;2022-07-23T11:37:11;8.18;;;5.13;;
22780;SDS011;11557;50.884;4.322;2022-07-23T11:39:52;7.82;;;5.10;;
22780;SDS011;11557;50.884;4.322;2022-07-23T11:42:22;7.55;;;4.07;;
22780;SDS011;11557;50.884;4.322;2022-07-23T11:44:49;7.07;;;4.63;;
22780;SDS011;11557;50.884;4.322;2022-07-23T11:47:15;9.30;;;4.13;;
22780;SDS011;11557;50.884;4.322;2022-07-23T11:49:54;5.45;;;4.20;;
22780;SDS011;11557;50.884;4.322;2022-07-23T11:52:24;5.80;;;3.78;;
22780;SDS011;11557;50.884;4.322;2022-07-23T11:57:26;7.78;;;3.95;;
22780;SDS011;11557;50.884;4.322;2022-07-23T11:59:56;6.07;;;3.92;;
22780;SDS011;11557;50.884;4.322;2022-07-23T12:02:24;7.72;;;4.50;;
22780;SDS011;11557;50.884;4.322;2022-07-23T12:04:51;8.15;;;5.00;;
22780;SDS011;11557;50.884;4.322;2022-07-23T12:07:27;6.35;;;4.30;;
22780;SDS011;11557;50.884;4.322;2022-07-23T12:10:24;7.57;;;4.68;;
22780;SDS011;11557;50.884;4.322;2022-07-23T12:12:56;4.95;;;3.97;;
22780;SDS011;11557;50.884;4.322;2022-07-23T12:15:28;7.03;;;3.78;;
22780;SDS011;11557;50.884;4.322;2022-07-23T12:17:57;8.70;;;6.50;;
22780;SDS011;11557;50.884;4.322;2022-07-23T12:20:25;6.25;;;4.45;;
22780;SDS011;11557;50.884;4.322;2022-07-23T12:22:57;8.05;;;4.05;;
22780;SDS011;11557;50.884;4.322;2022-07-23T12:25:28;7.55;;;4.30;;
22780;SDS011;11557;50.884;4.322;2022-07-23T12:28:02;5.07;;;4.05;;
22780;SDS011;11557;50.884;4.322;2022-07-23T12:33:03;5.20;;;4.55;;
22780;SDS011;11557;50.884;4.322;2022-07-23T12:35:34;5.85;;;4.82;;
22780;SDS011;11557;50.884;4.322;2022-07-23T12:38:06;9.90;;;4.55;;
22780;SDS011;11557;50.884;4.322;2022-07-23T12:40:34;6.57;;;4.40;;
22780;SDS011;11557;50.884;4.322;2022-07-23T12:43:10;6.65;;;3.83;;
22780;SDS011;11557;50.884;4.322;2022-07-23T12:45:44;8.05;;;4.18;;
22780;SDS011;11557;50.884;4.322;2022-07-23T12:48:27;8.20;;;4.15;;
22780;SDS011;11557;50.884;4.322;2022-07-23T12:50:56;7.00;;;4.32;;
22780;SDS011;11557;50.884;4.322;2022-07-23T13:08:59;6.35;;;3.90;;
22780;SDS011;11557;50.884;4.322;2022-07-23T13:11:25;5.20;;;4.43;;
22780;SDS011;11557;50.884;4.322;2022-07-23T13:13:50;6.53;;;4.30;;
22780;SDS011;11557;50.884;4.322;2022-07-23T13:16:16;10.63;;;5.00;;
22780;SDS011;11557;50.884;4.322;2022-07-23T13:18:42;8.57;;;3.63;;
22780;SDS011;11557;50.884;4.322;2022-07-23T13:21:08;16.92;;;4.30;;
22780;SDS011;11557;50.884;4.322;2022-07-23T13:23:34;4.50;;;3.60;;
22780;SDS011;11557;50.884;4.322;2022-07-23T13:26:00;5.93;;;4.15;;
22780;SDS011;11557;50.884;4.322;2022-07-23T13:28:25;6.03;;;3.10;;
22780;SDS011;11557;50.884;4.322;2022-07-23T13:30:51;5.95;;;3.28;;
22780;SDS011;11557;50.884;4.322;2022-07-23T13:33:19;3.55;;;2.85;;
22780;SDS011;11557;50.884;4.322;2022-07-23T13:35:46;6.82;;;3.38;;
22780;SDS011;11557;50.884;4.322;2022-07-23T13:38:12;7.03;;;3.85;;
22780;SDS011;11557;50.884;4.322;2022-07-23T13:40:40;6.50;;;4.00;;
22780;SDS011;11557;50.884;4.322;2022-07-23T13:43:07;6.55;;;3.50;;
22780;SDS011;11557;50.884;4.322;2022-07-23T13:45:35;5.07;;;3.58;;
22780;SDS011;11557;50.884;4.322;2022-07-23T13:48:01;4.75;;;3.38;;
22780;SDS011;11557;50.884;4.322;2022-07-23T13:50:27;6.18;;;4.05;;
22780;SDS011;11557;50.884;4.322;2022-07-23T13:52:52;7.28;;;3.50;;
22780;SDS011;11557;50.884;4.322;2022-07-23T13:55:18;3.65;;;3.20;;
22780;SDS011;11557;50.884;4.322;2022-07-23T13:57:44;5.40;;;3.50;;
22780;SDS011;11557;50.884;4.322;2022-07-23T14:00:10;6.32;;;3.00;;
22780;SDS011;11557;50.884;4.322;2022-07-23T14:02:37;7.53;;;3.53;;
22780;SDS011;11557;50.884;4.322;2022-07-23T14:05:04;5.22;;;3.50;;
22780;SDS011;11557;50.884;4.322;2022-07-23T14:07:32;7.15;;;3.53;;
22780;SDS011;11557;50.884;4.322;2022-07-23T14:09:58;5.57;;;3.30;;
22780;SDS011;11557;50.884;4.322;2022-07-23T14:12:24;6.05;;;3.30;;
22780;SDS011;11557;50.884;4.322;2022-07-23T14:14:50;5.03;;;3.88;;
22780;SDS011;11557;50.884;4.322;2022-07-23T14:17:16;3.60;;;3.20;;
22780;SDS011;11557;50.884;4.322;2022-07-23T14:19:42;6.47;;;3.05;;
22780;SDS011;11557;50.884;4.322;2022-07-23T14:22:08;7.93;;;3.70;;
22780;SDS011;11557;50.884;4.322;2022-07-23T14:24:34;5.20;;;3.15;;
22780;SDS011;11557;50.884;4.322;2022-07-23T14:27:00;4.82;;;3.55;;
22780;SDS011;11557;50.884;4.322;2022-07-23T14:29:27;6.22;;;3.20;;
22780;SDS011;11557;50.884;4.322;2022-07-23T14:31:52;3.70;;;3.10;;
22780;SDS011;11557;50.884;4.322;2022-07-23T14:34:18;4.40;;;3.17;;
22780;SDS011;11557;50.884;4.322;2022-07-23T14:36:44;3.92;;;3.17;;
22780;SDS011;11557;50.884;4.322;2022-07-23T14:39:09;6.10;;;3.30;;
22780;SDS011;11557;50.884;4.322;2022-07-23T14:41:36;5.97;;;3.63;;
22780;SDS011;11557;50.884;4.322;2022-07-23T14:44:03;7.18;;;3.28;;
22780;SDS011;11557;50.884;4.322;2022-07-23T14:46:29;5.88;;;3.47;;
22780;SDS011;11557;50.884;4.322;2022-07-23T14:48:55;7.75;;;3.17;;
22780;SDS011;11557;50.884;4.322;2022-07-23T14:51:21;6.13;;;3.60;;
22780;SDS011;11557;50.884;4.322;2022-07-23T14:53:47;3.80;;;3.38;;
22780;SDS011;11557;50.884;4.322;2022-07-23T14:56:13;6.65;;;3.88;;
22780;SDS011;11557;50.884;4.322;2022-07-23T14:58:39;6.70;;;4.05;;
22780;SDS011;11557;50.884;4.322;2022-07-23T15:01:05;4.63;;;4.00;;
22780;SDS011;11557;50.884;4.322;2022-07-23T15:03:31;9.60;;;6.43;;
22780;SDS011;11557;50.884;4.322;2022-07-23T15:05:57;8.15;;;4.15;;
22780;SDS011;11557;50.884;4.322;2022-07-23T15:08:23;5.35;;;3.85;;
22780;SDS011;11557;50.884;4.322;2022-07-23T15:10:49;4.35;;;3.33;;
22780;SDS011;11557;50.884;4.322;2022-07-23T15:13:15;5.93;;;4.10;;
22780;SDS011;11557;50.884;4.322;2022-07-23T15:15:40;5.43;;;3.60;;
22780;SDS011;11557;50.884;4.322;2022-07-23T15:18:06;7.00;;;3.55;;
22780;SDS011;11557;50.884;4.322;2022-07-23T15:20:31;5.85;;;3.80;;
22780;SDS011;11557;50.884;4.322;2022-07-23T15:22:57;6.82;;;3.90;;
22780;SDS011;11557;50.884;4.322;2022-07-23T15:25:23;7.63;;;4.15;;
22780;SDS011;11557;50.884;4.322;2022-07-23T15:27:49;8.57;;;4.10;;
22780;SDS011;11557;50.884;4.322;2022-07-23T15:30:15;7.10;;;4.20;;
22780;SDS011;11557;50.884;4.322;2022-07-23T15:32:40;6.72;;;3.50;;
22780;SDS011;11557;50.884;4.322;2022-07-23T15:35:06;6.20;;;3.95;;
22780;SDS011;11557;50.884;4.322;2022-07-23T15:37:33;4.90;;;3.70;;
22780;SDS011;11557;50.884;4.322;2022-07-23T15:40:00;5.57;;;3.88;;
22780;SDS011;11557;50.884;4.322;2022-07-23T15:42:26;4.20;;;3.78;;
22780;SDS011;11557;50.884;4.322;2022-07-23T15:44:51;5.60;;;4.07;;